Saint Petersburg Beach, Florida
Current Conditions -  °F | °C
As of 9:53 AM on Friday 19 Dec 2014 (Local Time) from KSPG Reporting Station
Clear Clear  
Wind Chill: 61°   Ceiling: Unl
Heat Index: 61°   Visibility: 10mi
Dew Point: 50°   Wind: 6mph
Humidity: 67%   Direction: 100°E
Pressure: 30.13"   Gusts: NA
Location:  27.7254°N, 82.7422°W
Report Text: KSPG 191453Z 10005KT 10SM CLR 16/10 A3013 RMK AO2 SLP204 T01610100 50011
Loading
Personal Weather Stations






























Interactive Weather Map New forecast layout! Learn more

10-Day Weather Forecast

Advertisements
Track Severe Weather on mobile